createdAt,value
2022-10-22T00:00:25.263Z,99693.60
2022-10-22T00:05:47.845Z,99688.91
2022-10-22T00:10:50.247Z,99683.36
2022-10-22T00:15:52.781Z,99682.97
2022-10-22T00:20:55.468Z,99681.81
2022-10-22T00:25:58.188Z,99680.34
2022-10-22T00:31:00.878Z,99674.66
2022-10-22T00:36:03.402Z,99668.50
2022-10-22T00:41:06.109Z,99665.31
2022-10-22T00:46:08.535Z,99661.47
2022-10-22T00:51:11.041Z,99655.38
2022-10-22T00:56:13.946Z,99655.46
2022-10-22T01:01:18.165Z,99656.13
2022-10-22T01:06:30.625Z,99654.79
2022-10-22T01:11:34.983Z,99650.19
2022-10-22T01:16:44.385Z,99648.29
2022-10-22T01:21:50.608Z,99643.20
2022-10-22T01:26:58.550Z,99638.90
2022-10-22T01:32:03.889Z,99631.41
2022-10-22T01:37:06.691Z,99629.70
2022-10-22T01:42:09.081Z,99630.05
2022-10-22T01:47:15.914Z,99628.70
2022-10-22T01:52:26.910Z,99629.60
2022-10-22T01:57:29.745Z,99626.12
2022-10-22T02:02:35.117Z,99612.66
2022-10-22T02:07:41.355Z,99607.26
2022-10-22T02:12:48.722Z,99607.64
2022-10-22T02:17:52.471Z,99611.91
2022-10-22T02:22:55.917Z,99605.38
2022-10-22T02:28:01.328Z,99603.80
2022-10-22T02:33:23.070Z,99600.31
2022-10-22T02:38:26.411Z,99596.73
2022-10-22T02:43:31.352Z,99595.26
2022-10-22T02:48:33.749Z,99592.23
2022-10-22T02:53:36.181Z,99588.13
2022-10-22T02:58:38.578Z,99594.93
2022-10-22T03:03:40.974Z,99600.60
2022-10-22T03:08:43.496Z,99598.06
2022-10-22T03:13:45.904Z,99600.05
2022-10-22T03:18:48.306Z,99600.45
2022-10-22T03:23:51.615Z,99600.81
2022-10-22T03:28:54.402Z,99597.77
2022-10-22T03:33:56.818Z,99596.56
2022-10-22T03:38:59.799Z,99595.73
2022-10-22T03:44:02.907Z,99589.88
2022-10-22T03:49:05.577Z,99589.05
2022-10-22T03:54:10.242Z,99588.61
2022-10-22T03:59:13.136Z,99585.12
2022-10-22T04:04:15.614Z,99588.98
2022-10-22T04:09:18.136Z,99588.58
2022-10-22T04:14:20.627Z,99585.63
2022-10-22T04:19:23.142Z,99584.38
2022-10-22T04:24:25.739Z,99584.10
2022-10-22T04:29:28.377Z,99587.25
2022-10-22T04:34:31.311Z,99579.75
2022-10-22T04:39:33.807Z,99578.59
2022-10-22T04:44:36.300Z,99588.77
2022-10-22T04:49:38.785Z,99591.50
2022-10-22T04:54:41.238Z,99596.13
2022-10-22T04:59:43.783Z,99585.27
2022-10-22T05:04:46.205Z,99560.48
2022-10-22T05:09:48.960Z,99558.48
2022-10-22T05:14:53.687Z,99566.54
2022-10-22T05:19:56.067Z,99563.55
2022-10-22T05:24:58.450Z,99566.70
2022-10-22T05:30:00.926Z,99558.01
2022-10-22T05:35:03.431Z,99548.91
2022-10-22T05:40:19.081Z,99563.23
2022-10-22T05:45:28.741Z,99561.74
2022-10-22T05:50:31.395Z,99557.52
2022-10-22T05:55:37.410Z,99571.60
2022-10-22T06:00:39.935Z,99568.67
2022-10-22T06:05:42.370Z,99565.05
2022-10-22T06:10:44.881Z,99578.71
2022-10-22T06:15:47.308Z,99592.52
2022-10-22T06:20:49.925Z,99588.79
2022-10-22T06:25:55.490Z,99604.73
2022-10-22T06:31:01.322Z,99605.10
2022-10-22T06:36:07.797Z,99614.37
2022-10-22T06:41:11.791Z,99620.05
2022-10-22T06:46:19.193Z,99622.74
2022-10-22T06:51:23.128Z,99626.10
2022-10-22T06:56:27.512Z,99626.02
2022-10-22T07:01:33.686Z,99625.43
2022-10-22T07:06:36.629Z,99625.48
2022-10-22T07:11:40.497Z,99615.42
2022-10-22T07:16:43.151Z,99619.60
2022-10-22T07:21:47.762Z,99626.95
2022-10-22T07:26:50.466Z,99626.70
2022-10-22T07:31:53.032Z,99627.97
2022-10-22T07:36:57.202Z,99623.88
2022-10-22T07:41:59.778Z,99625.75
2022-10-22T07:47:02.186Z,99627.81
2022-10-22T07:52:04.750Z,99627.06
2022-10-22T07:57:07.125Z,99624.15
2022-10-22T08:02:10.339Z,99633.64
2022-10-22T08:07:13.986Z,99628.27
2022-10-22T08:12:16.882Z,99617.09
2022-10-22T08:17:19.329Z,99632.36
2022-10-22T08:22:21.772Z,99640.95
2022-10-22T08:27:24.163Z,99648.58
2022-10-22T08:37:29.101Z,99658.88
2022-10-22T08:42:41.161Z,99656.94
2022-10-22T08:47:46.663Z,99660.33
2022-10-22T08:52:51.763Z,99659.09
2022-10-22T08:58:00.864Z,99658.73
2022-10-22T09:03:03.243Z,99656.26
2022-10-22T09:08:09.806Z,99654.45
2022-10-22T09:13:13.807Z,99649.88
2022-10-22T09:18:21.238Z,99652.66
2022-10-22T09:23:23.661Z,99649.66
2022-10-22T09:28:28.757Z,99651.59
2022-10-22T09:33:32.776Z,99665.04
2022-10-22T09:38:40.352Z,99667.54
2022-10-22T09:43:46.470Z,99664.34
2022-10-22T09:48:52.031Z,99656.34
2022-10-22T09:53:57.143Z,99652.59
2022-10-22T09:58:59.584Z,99640.73
2022-10-22T10:04:09.377Z,99637.78
2022-10-22T10:09:15.864Z,99630.89
2022-10-22T10:14:27.200Z,99636.36
2022-10-22T10:19:49.993Z,99630.54
2022-10-22T10:24:57.644Z,99623.13
2022-10-22T10:30:03.213Z,99623.88
2022-10-22T10:35:07.023Z,99620.91
2022-10-22T10:40:18.816Z,99630.23
2022-10-22T10:45:24.244Z,99632.86
2022-10-22T10:50:30.982Z,99634.70
2022-10-22T10:55:36.403Z,99635.27
2022-10-22T11:00:42.608Z,99637.52
2022-10-22T11:05:46.006Z,99633.30
2022-10-22T11:10:52.807Z,99633.48
2022-10-22T11:15:58.152Z,99632.29
2022-10-22T11:21:03.641Z,99629.04
2022-10-22T11:26:11.925Z,99625.03
2022-10-22T11:31:16.159Z,99622.12
2022-10-22T11:36:22.534Z,99610.06
2022-10-22T11:41:27.517Z,99607.46
2022-10-22T11:46:32.972Z,99606.44
2022-10-22T11:51:36.635Z,99607.13
2022-10-22T11:56:39.329Z,99608.73
2022-10-22T12:01:42.775Z,99620.81
2022-10-22T12:06:48.124Z,99628.36
2022-10-22T12:11:50.870Z,99623.88
2022-10-22T12:16:57.733Z,99616.39
2022-10-22T12:22:20.610Z,99605.17
2022-10-22T12:27:26.894Z,99600.53
2022-10-22T12:32:32.291Z,99597.84
2022-10-22T12:37:36.266Z,99596.64
2022-10-22T12:42:38.716Z,99594.28
2022-10-22T12:47:45.154Z,99596.55
2022-10-22T12:52:48.187Z,99589.52
2022-10-22T12:57:50.677Z,99589.57
2022-10-22T13:02:53.633Z,99589.00
2022-10-22T13:07:58.974Z,99589.61
2022-10-22T13:13:03.980Z,99596.16
2022-10-22T13:18:09.467Z,99596.55
2022-10-22T13:23:14.877Z,99596.30
2022-10-22T13:28:20.284Z,99596.85
2022-10-22T13:33:26.353Z,99594.58
2022-10-22T13:38:29.100Z,99596.19
2022-10-22T13:43:32.059Z,99595.27
2022-10-22T13:48:34.442Z,99592.13
2022-10-22T13:53:36.879Z,99587.77
2022-10-22T13:58:39.316Z,99585.42
2022-10-22T14:03:42.029Z,99582.58
2022-10-22T14:08:45.973Z,99582.67
2022-10-22T14:13:48.528Z,99580.41
2022-10-22T14:18:51.415Z,99582.20
2022-10-22T14:23:54.442Z,99583.23
2022-10-22T14:29:09.404Z,99590.65
2022-10-22T14:34:14.576Z,99590.38
2022-10-22T14:39:18.509Z,99593.02
2022-10-22T14:44:20.938Z,99595.05
2022-10-22T14:49:23.363Z,99597.69
2022-10-22T14:54:25.894Z,99594.10
2022-10-22T14:59:28.546Z,99600.84
2022-10-22T15:04:33.492Z,99604.64
2022-10-22T15:09:35.929Z,99604.92
2022-10-22T15:14:38.383Z,99607.60
2022-10-22T15:19:40.827Z,99611.34
2022-10-22T15:24:44.713Z,99613.54
2022-10-22T15:29:47.127Z,99616.10
2022-10-22T15:34:52.139Z,99614.92
2022-10-22T15:39:54.582Z,99617.42
2022-10-22T15:44:57.944Z,99616.63
2022-10-22T15:50:00.465Z,99622.33
2022-10-22T15:55:06.822Z,99628.42
2022-10-22T16:00:09.770Z,99630.00
2022-10-22T16:05:12.399Z,99633.58
2022-10-22T16:10:14.841Z,99643.02
2022-10-22T16:15:17.293Z,99640.56
2022-10-22T16:20:19.944Z,99646.22
2022-10-22T16:25:22.502Z,99645.08
2022-10-22T16:30:24.933Z,99651.85
2022-10-22T16:35:27.747Z,99653.45
2022-10-22T16:40:30.225Z,99654.98
2022-10-22T16:45:32.777Z,99655.81
2022-10-22T16:50:40.969Z,99659.84
2022-10-22T16:55:43.699Z,99661.90
2022-10-22T17:00:48.192Z,99664.98
2022-10-22T17:05:53.434Z,99668.86
2022-10-22T17:10:55.833Z,99669.70
2022-10-22T17:16:03.627Z,99671.37
2022-10-22T17:21:06.673Z,99683.54
2022-10-22T17:26:12.981Z,99682.90
2022-10-22T17:31:16.591Z,99685.64
2022-10-22T17:36:20.062Z,99685.77
2022-10-22T17:41:24.483Z,99687.92
2022-10-22T17:46:28.003Z,99689.01
2022-10-22T17:51:31.383Z,99691.84
2022-10-22T17:56:34.500Z,99688.30
2022-10-22T18:01:40.183Z,99688.51
2022-10-22T18:06:42.759Z,99687.21
2022-10-22T18:11:47.381Z,99695.42
2022-10-22T18:16:50.228Z,99696.99
2022-10-22T18:21:53.054Z,99696.08
2022-10-22T18:26:55.567Z,99697.31
2022-10-22T18:31:58.209Z,99697.42
2022-10-22T18:37:00.655Z,99698.08
2022-10-22T18:42:06.377Z,99697.70
2022-10-22T18:47:11.925Z,99703.90
2022-10-22T18:52:14.391Z,99706.96
2022-10-22T18:57:16.935Z,99706.73
2022-10-22T19:02:19.374Z,99709.91
2022-10-22T19:07:21.816Z,99712.92
2022-10-22T19:12:24.277Z,99715.12
2022-10-22T19:17:29.560Z,99721.77
2022-10-22T19:22:32.348Z,99720.61
2022-10-22T19:27:39.419Z,99725.88
2022-10-22T19:32:42.474Z,99731.94
2022-10-22T19:37:48.291Z,99736.20
2022-10-22T19:42:51.367Z,99745.85
2022-10-22T19:47:53.825Z,99746.31
2022-10-22T19:52:56.254Z,99750.88
2022-10-22T19:57:58.676Z,99751.52
2022-10-22T20:03:01.093Z,99760.86
2022-10-22T20:08:06.070Z,99770.98
2022-10-22T20:13:08.634Z,99772.67
2022-10-22T20:18:11.254Z,99779.30
2022-10-22T20:23:13.709Z,99787.63
2022-10-22T20:28:16.346Z,99792.35
2022-10-22T20:33:18.749Z,99798.41
2022-10-22T20:38:21.133Z,99800.77
2022-10-22T20:43:23.559Z,99799.70
2022-10-22T20:48:29.362Z,99800.11
2022-10-22T20:53:33.967Z,99802.56
2022-10-22T20:58:37.299Z,99808.41
2022-10-22T21:03:39.738Z,99812.54
2022-10-22T21:08:42.323Z,99816.19
2022-10-22T21:13:45.069Z,99815.91
2022-10-22T21:18:48.298Z,99817.77
2022-10-22T21:23:51.362Z,99824.85
2022-10-22T21:28:53.774Z,99826.13
2022-10-22T21:33:56.258Z,99829.68
2022-10-22T21:38:58.713Z,99829.00
2022-10-22T21:44:01.139Z,99827.33
2022-10-22T21:49:04.069Z,99835.22
2022-10-22T21:54:06.873Z,99839.16
2022-10-22T21:59:09.464Z,99843.55
2022-10-22T22:04:11.922Z,99849.00
2022-10-22T22:09:14.563Z,99845.29
2022-10-22T22:14:17.109Z,99846.52
2022-10-22T22:19:19.516Z,99850.95
2022-10-22T22:24:22.119Z,99851.69
2022-10-22T22:29:24.524Z,99855.70
2022-10-22T22:34:27.021Z,99859.74
2022-10-22T22:39:29.488Z,99860.08
2022-10-22T22:44:32.012Z,99865.84
2022-10-22T22:49:35.653Z,99867.96
2022-10-22T22:54:38.204Z,99869.27
2022-10-22T22:59:41.239Z,99873.14
2022-10-22T23:04:43.645Z,99874.80
2022-10-22T23:09:47.157Z,99876.30
2022-10-22T23:14:51.069Z,99881.67
2022-10-22T23:19:54.064Z,99888.71
2022-10-22T23:24:56.655Z,99891.91
2022-10-22T23:29:59.092Z,99892.75
2022-10-22T23:35:01.626Z,99895.02
2022-10-22T23:40:04.496Z,99901.73
2022-10-22T23:45:07.137Z,99899.84
2022-10-22T23:50:09.627Z,99909.48
2022-10-22T23:55:14.268Z,99915.72
